»·PEaware :: SWA2785 KSNA-KLAS

SWA2785 :: KSNA-KLAS

FLIGHT INFORMATION

Flight Status: Arrived
Operator:
Southwest Airlines
More flights by this operator :: More flights under this callsign
Pilot: Cody B. (17747)
Aircraft: BOEING 737-800
(B738)
More flights by this aircraft type
Origin: KSNA John Wayne-Orange Co
United States
Destination: KLAS McCarran Intl
United States
More flights between these airports :: More routes between these airports
Route: +FINZZ2 MISEN KEPEC6
File this flight plan on PilotEdge
Remarks:
Altitude:
(Current/Filed)
29,000ft
Speed:
(Current/Filed)
437kts
Departed: 06-May-18 01:46 PM
Arrived: 06-May-18 02:35 PM
Distance/Time
Traveled:
197nm/0:49
Distance/Time
To Go:
Arrived

Flight Plot

Page will automatically refresh every two minutes.

Flight plan parsing failed; only flown route is shown


Map Options




Map Legend


Flown Route
Filed Route
Departure Airport
Arrival Airport
Navaid (VOR, NDB)
Fix

Horizontal Profiles

Position Reports

Time Latitude Longitude Heading Altitude Ground
Speed
06-May-18 13:10 33.676094 -117.864411 117 64ft 0kts
06-May-18 13:11 33.676094 -117.864411 117 64ft 0kts
06-May-18 13:12 33.676094 -117.864411 117 64ft 0kts
06-May-18 13:13 33.676094 -117.864411 117 64ft 0kts
06-May-18 13:14 33.676094 -117.864411 117 64ft 0kts
06-May-18 13:15 33.676094 -117.864411 117 64ft 0kts
06-May-18 13:16 33.676094 -117.864411 117 64ft 0kts
06-May-18 13:17 33.676094 -117.864411 117 64ft 0kts
06-May-18 13:18 33.676094 -117.864411 117 64ft 0kts
06-May-18 13:19 33.676094 -117.864411 117 64ft 0kts
06-May-18 13:20 33.676094 -117.864411 117 64ft 0kts
06-May-18 13:21 33.676094 -117.864411 117 64ft 0kts
06-May-18 13:22 33.676094 -117.864411 117 64ft 0kts
06-May-18 13:23 33.676094 -117.864411 117 64ft 0kts
06-May-18 13:24 33.676094 -117.864411 117 64ft 0kts
06-May-18 13:25 33.676094 -117.864411 117 64ft 0kts
06-May-18 13:27 33.676094 -117.864411 117 64ft 0kts
06-May-18 13:28 33.676094 -117.864411 117 64ft 0kts
06-May-18 13:29 33.676094 -117.864411 117 64ft 0kts
06-May-18 13:30 33.676094 -117.864411 117 64ft 0kts
06-May-18 13:31 33.676094 -117.864411 117 64ft 0kts
06-May-18 13:32 33.676153 -117.864550 117 64ft 2kts
06-May-18 13:33 33.676194 -117.865146 44 64ft 2kts
06-May-18 13:34 33.676079 -117.865236 27 64ft 0kts
06-May-18 13:35 33.676079 -117.865236 27 64ft 0kts
06-May-18 13:36 33.676424 -117.865018 27 64ft 6kts
06-May-18 13:37 33.678882 -117.863453 27 64ft 8kts
06-May-18 13:38 33.679036 -117.863361 26 64ft 0kts
06-May-18 13:39 33.679116 -117.863312 26 64ft 2kts
06-May-18 13:40 33.680479 -117.862851 317 64ft 4kts
06-May-18 13:41 33.680669 -117.863155 299 64ft 0kts
06-May-18 13:42 33.680669 -117.863155 299 64ft 0kts
06-May-18 13:43 33.680669 -117.863155 299 64ft 0kts
06-May-18 13:44 33.680816 -117.863463 298 64ft 4kts
06-May-18 13:45 33.681503 -117.865058 262 64ft 0kts
06-May-18 13:46 33.673409 -117.870246 206 65ft 148kts
06-May-18 13:47 33.629821 -117.891439 189 3456ft 179kts
06-May-18 13:48 33.571289 -117.901293 204 5467ft 256kts
06-May-18 13:49 33.516356 -117.957844 224 8004ft 274kts
06-May-18 13:50 33.508405 -118.036453 307 9000ft 294kts
06-May-18 13:51 33.568734 -118.109825 329 12195ft 336kts
06-May-18 13:52 33.659792 -118.091706 25 15837ft 361kts
06-May-18 13:53 33.751387 -118.037214 24 19100ft 379kts
06-May-18 13:54 33.847998 -117.980136 23 21912ft 398kts
06-May-18 13:55 33.946434 -117.913772 36 23051ft 413kts
06-May-18 13:56 34.035200 -117.829642 34 23166ft 417kts
06-May-18 13:57 34.121291 -117.739576 51 25777ft 428kts
06-May-18 13:58 34.195059 -117.624322 49 27939ft 441kts
06-May-18 13:59 34.272650 -117.507481 48 29071ft 460kts
06-May-18 14:00 34.355527 -117.383094 49 29064ft 491kts
06-May-18 14:01 34.441075 -117.254455 49 29078ft 492kts
06-May-18 14:02 34.526612 -117.125608 49 29081ft 492kts
06-May-18 14:03 34.613238 -116.998211 48 29024ft 493kts
06-May-18 14:04 34.700466 -116.870822 48 29018ft 492kts
06-May-18 14:05 34.787746 -116.742847 48 29021ft 493kts
06-May-18 14:06 34.877723 -116.618155 36 29020ft 489kts
06-May-18 14:07 34.981191 -116.519207 35 27720ft 461kts
06-May-18 14:08 35.079640 -116.424115 35 24767ft 448kts
06-May-18 14:09 35.166372 -116.322924 43 24057ft 432kts
06-May-18 14:10 35.250027 -116.218067 44 24055ft 431kts
06-May-18 14:11 35.333072 -116.113560 42 23318ft 431kts
06-May-18 14:12 35.414269 -116.010924 43 20654ft 412kts
06-May-18 14:13 35.492693 -115.911690 45 18253ft 400kts
06-May-18 14:14 35.568509 -115.815517 45 15864ft 388kts
06-May-18 14:15 35.640648 -115.723625 46 13675ft 348kts
06-May-18 14:16 35.705277 -115.641196 46 13027ft 328kts
06-May-18 14:17 35.776161 -115.573949 8 13036ft 329kts
06-May-18 14:18 35.866995 -115.567510 359 13030ft 328kts
06-May-18 14:19 35.956954 -115.556091 28 13034ft 330kts
06-May-18 14:20 36.002156 -115.466521 71 11954ft 303kts
06-May-18 14:21 36.030603 -115.372196 86 10975ft 287kts
06-May-18 14:22 36.025517 -115.277169 100 9868ft 286kts
06-May-18 14:23 36.018225 -115.181657 99 8845ft 267kts
06-May-18 14:24 36.011742 -115.089979 99 8064ft 257kts
06-May-18 14:25 36.006368 -115.003996 97 8029ft 250kts
06-May-18 14:26 36.005349 -114.920574 96 6766ft 226kts
06-May-18 14:27 36.003425 -114.845840 96 5396ft 214kts
06-May-18 14:28 36.023526 -114.785558 2 5014ft 235kts
06-May-18 14:29 36.062646 -114.842397 290 4992ft 227kts
06-May-18 14:30 36.073292 -114.911162 267 4981ft 184kts
06-May-18 14:31 36.073612 -114.967262 265 4610ft 156kts
06-May-18 14:32 36.073616 -115.020067 266 3785ft 154kts
06-May-18 14:33 36.073921 -115.070428 266 2943ft 141kts
06-May-18 14:34 36.073491 -115.119938 269 2188ft 149kts
06-May-18 14:35 36.074287 -115.149661 294 2117ft 23kts
06-May-18 14:36 36.074571 -115.150299 300 2119ft 0kts
06-May-18 14:37 36.074619 -115.150401 299 2120ft 0kts
06-May-18 14:38 36.074829 -115.150806 308 2121ft 4kts
06-May-18 14:39 36.077308 -115.152531 335 2123ft 11kts
06-May-18 14:40 36.077446 -115.152611 334 2123ft 0kts
06-May-18 14:41 36.078521 -115.153235 333 2123ft 12kts
06-May-18 14:42 36.081485 -115.154008 94 2119ft 8kts
06-May-18 14:43 36.081036 -115.151580 91 2112ft 7kts
06-May-18 14:44 36.080607 -115.149040 154 2102ft 13kts
06-May-18 14:45 36.079632 -115.147694 60 2100ft 8kts
06-May-18 14:46 36.079920 -115.147121 57 2096ft 0kts
06-May-18 14:47 36.079920 -115.147121 57 2096ft 0kts
06-May-18 14:48 36.079920 -115.147121 57 2096ft 0kts

Navigation Log

Ident Type
Flight plan parsing failed, navigation log unavailable